Airfield :
LOGIN :

Register | Disclaimer

   EN    FR    IT 

 










Legend :    VFR   Marginal VFR   IFR   Intensive IFR   Very Intensive IFR
Visi :
Ceiling :
>= 8 km
>= 3000ft
5 to 8 km
1000 to 3000 ft
1500m to 5 km
500 to 1000 ft
800 to 1500m
200 to 500 ft
< 800m
< 200 ft
Symbols :   Thunderstorms  Fog  Heavy snow  Heavy precipitations  Wind > 20 kt
SIGMETs :     Misc.  Thunderstorms  Icing  Turbulence  Mountain Waves  Volcanic Ashes






- Airport Elevation : 36 ft
- IATA code : LTQ


LFAT - Le Touquet

CURRENT METAR :
  • 192130Z AUTO 26005KT 230V290 9000 BKN010 OVC016 16/16 Q1008

EXPIRED METARs :
  • 192100Z AUTO 16005KT 130V210 9000 NSC 16/15 Q1008
  • 192030Z AUTO 10009KT 070V130 9000 NSC 16/15 Q1007
  • 192000Z AUTO 08011KT 9999 ///CB 16/15 Q1008
  • 191930Z AUTO 07013KT 8000 -RA ///CB 16/15 Q1008
  • 191900Z AUTO 08010KT 5000 RA BR ///CB 16/16 Q1009 TEMPO VRB15G25KT 1200 TSRAGS BKN007 BKN030CB

TAF TAF LFAT
Valid from the 19 at 15:00 until the 20 at 00:00 UTC


191400Z 1915/1924 09005KT 9999 OVC009
BECMG 1915/1918 BKN017
TEMPO 1918/1924 VRB15G25KT 1200 TSRAGS BKN007 BKN030CB
ATIS : +33 3 21 06 62 84



MET'MAP, your aeronautical weather chart ! - Copyright ORBIFLY December 2007 - Disclaimer

ORBIFLY MET'MAP TEAM :

Programming & Development : Alexandra Zaïnal
Concept & original design : Baudouin d'Aumeries
Assistance for programming : Marc-Olivier Méhu
Technical & hardware support : Manuel Goepfert

Contact : metmap@orbifly.com




SOURCES & CREDITS :

   NOAA